Time;durP1;ratioP1;P1;durP2;ratioP2;P2;SDS_P1;SDS_P2;PMS_P1;PMS_P2;Temp;Humidity;BMP_temperature;BMP_pressure;BME280_temperature;BME280_humidity;BME280_pressure;Samples;Min_cycle;Max_cycle;Signal;HPM_P1;HPM_P2
2021/12/08 00:02:15;;;;;;;12.90;4.05;;;3.40;99.90;;;;;;5037213;28;20045;-93
2021/12/08 00:04:42;;;;;;;15.45;4.68;;;3.20;99.90;;;;;;5020370;28;20049;-94
2021/12/08 00:07:08;;;;;;;11.38;4.57;;;3.10;99.90;;;;;;5021180;28;20479;-94
2021/12/08 00:09:47;;;;;;;13.05;4.60;;;2.90;99.90;;;;;;5021404;28;20041;-95
2021/12/08 00:15:00;;;;;;;13.88;4.50;;;3.20;99.90;;;;;;5053519;28;20052;-94
2021/12/08 00:17:26;;;;;;;15.00;4.93;;;3.20;99.90;;;;;;5019906;28;20041;-93
2021/12/08 00:20:04;;;;;;;15.13;4.82;;;3.10;99.90;;;;;;5036640;28;20110;-92
2021/12/08 00:22:29;;;;;;;14.35;4.53;;;3.00;99.90;;;;;;5020304;28;20048;-95
2021/12/08 00:24:55;;;;;;;14.40;4.53;;;2.90;99.90;;;;;;5036412;28;20052;-91
2021/12/08 00:27:21;;;;;;;24.63;5.90;;;3.40;99.90;;;;;;5036362;28;20045;-94
2021/12/08 00:29:47;;;;;;;13.93;5.03;;;2.90;99.90;;;;;;5036335;28;20045;-94
2021/12/08 00:32:13;;;;;;;11.07;4.65;;;2.50;99.90;;;;;;5036285;28;20098;-95
2021/12/08 00:34:39;;;;;;;10.25;4.28;;;3.30;99.90;;;;;;5036407;28;20490;-94
2021/12/08 00:37:06;;;;;;;18.10;4.72;;;2.90;99.90;;;;;;5035823;28;20057;-94
2021/12/08 00:39:32;;;;;;;14.98;4.60;;;3.20;99.90;;;;;;5036419;28;20075;-93
2021/12/08 00:41:58;;;;;;;13.05;4.65;;;3.50;99.90;;;;;;5019595;28;20045;-94
2021/12/08 00:44:24;;;;;;;15.35;4.47;;;3.00;99.90;;;;;;5035820;28;20491;-93
2021/12/08 00:46:50;;;;;;;16.10;5.15;;;3.40;99.90;;;;;;5019502;28;20052;-93
2021/12/08 00:49:16;;;;;;;19.65;4.55;;;3.50;99.90;;;;;;5021860;28;20081;-94
2021/12/08 00:51:42;;;;;;;15.15;4.47;;;3.50;99.90;;;;;;5023445;28;20398;-93
2021/12/08 00:54:08;;;;;;;15.10;4.22;;;3.00;99.90;;;;;;5039829;28;20049;-93
2021/12/08 00:56:34;;;;;;;14.93;5.47;;;3.00;99.90;;;;;;5039408;28;20110;-93
2021/12/08 00:59:00;;;;;;;10.02;4.53;;;3.50;99.90;;;;;;5023290;28;20045;-94
2021/12/08 01:01:26;;;;;;;13.15;4.25;;;3.30;99.90;;;;;;5022884;28;20055;-93
2021/12/08 01:03:52;;;;;;;10.68;4.50;;;3.10;99.90;;;;;;5039773;28;20104;-93
2021/12/08 01:06:18;;;;;;;14.88;4.40;;;3.70;99.90;;;;;;5023100;28;20052;-94
2021/12/08 01:08:44;;;;;;;9.23;4.75;;;3.50;99.90;;;;;;5022504;28;20053;-93
2021/12/08 01:11:16;;;;;;;18.95;4.40;;;3.80;99.90;;;;;;5022893;28;20048;-92
2021/12/08 01:13:44;;;;;;;13.20;4.65;;;3.20;99.90;;;;;;5039308;28;20126;-92
2021/12/08 01:16:10;;;;;;;10.18;4.25;;;3.30;99.90;;;;;;5039239;28;20049;-95
2021/12/08 01:18:36;;;;;;;10.25;4.50;;;3.30;99.90;;;;;;5039505;28;20082;-93
2021/12/08 01:21:05;;;;;;;19.55;5.03;;;3.30;99.90;;;;;;5039633;28;20057;-92
2021/12/08 01:23:32;;;;;;;13.00;5.15;;;3.30;99.90;;;;;;5022695;28;20051;-94
2021/12/08 01:25:57;;;;;;;14.20;5.47;;;3.40;99.90;;;;;;5023021;28;20080;-95
2021/12/08 01:28:24;;;;;;;13.13;4.95;;;3.30;99.90;;;;;;5022445;28;20072;-94
2021/12/08 01:30:52;;;;;;;9.43;5.05;;;3.30;99.90;;;;;;5039199;28;20372;-94
2021/12/08 01:33:20;;;;;;;12.85;4.80;;;3.30;99.90;;;;;;5039384;28;20049;-94
2021/12/08 01:35:46;;;;;;;15.38;5.78;;;3.30;99.90;;;;;;5022541;28;20478;-92
2021/12/08 01:38:12;;;;;;;14.02;5.00;;;3.30;99.90;;;;;;5022538;28;20052;-95
2021/12/08 01:40:38;;;;;;;9.23;4.60;;;3.30;99.90;;;;;;5022524;28;20041;-94
2021/12/08 01:43:11;;;;;;;9.80;4.45;;;3.40;99.90;;;;;;5038932;28;20041;-94
2021/12/08 01:45:57;;;;;;;13.70;5.38;;;3.50;99.90;;;;;;5022304;28;20132;-95
2021/12/08 01:48:23;;;;;;;12.02;5.28;;;3.40;99.90;;;;;;5022237;28;20063;-94
2021/12/08 01:50:52;;;;;;;12.93;6.10;;;3.40;99.90;;;;;;5038787;28;20139;-95
2021/12/08 01:53:19;;;;;;;14.65;5.85;;;3.40;99.90;;;;;;5022603;28;20052;-94
2021/12/08 01:55:46;;;;;;;17.80;5.60;;;3.30;99.90;;;;;;5022057;28;20045;-94
2021/12/08 01:58:13;;;;;;;18.67;6.40;;;3.60;99.90;;;;;;5038639;28;20139;-94
2021/12/08 02:00:59;;;;;;;13.80;5.30;;;3.50;99.90;;;;;;5038360;28;20157;-95
2021/12/08 02:03:25;;;;;;;12.05;4.95;;;3.40;99.90;;;;;;5022183;28;20045;-93
2021/12/08 02:05:53;;;;;;;14.77;6.03;;;3.40;99.90;;;;;;5038059;28;20049;-93
2021/12/08 02:08:19;;;;;;;16.13;5.72;;;3.40;99.90;;;;;;5037810;28;20399;-94
2021/12/08 02:10:45;;;;;;;12.77;6.03;;;3.50;99.90;;;;;;5021482;28;20053;-95
2021/12/08 02:13:12;;;;;;;19.50;6.45;;;3.40;99.90;;;;;;5021875;28;20076;-95
2021/12/08 02:15:38;;;;;;;12.23;5.00;;;3.70;99.90;;;;;;5021617;28;20095;-95
2021/12/08 02:18:07;;;;;;;15.80;5.82;;;3.80;99.90;;;;;;5038684;28;20045;-94
2021/12/08 02:20:34;;;;;;;16.48;6.32;;;3.50;99.90;;;;;;5021637;28;20136;-94
2021/12/08 02:23:00;;;;;;;15.45;5.38;;;3.70;99.90;;;;;;5038504;28;20126;-94
2021/12/08 02:25:27;;;;;;;14.85;5.45;;;3.50;99.90;;;;;;5021520;28;20487;-94
2021/12/08 02:27:55;;;;;;;18.02;6.00;;;3.50;99.90;;;;;;5021720;28;20041;-94
2021/12/08 02:30:31;;;;;;;14.95;5.80;;;3.60;99.90;;;;;;5021711;28;20106;-94
2021/12/08 02:46:53;;;;;;;14.43;6.28;;;3.60;99.90;;;;;;5054485;28;20049;-94
2021/12/08 02:49:22;;;;;;;15.73;6.82;;;3.60;99.90;;;;;;5038182;28;20122;-94
2021/12/08 02:51:49;;;;;;;14.95;6.15;;;3.60;99.90;;;;;;5021134;28;20052;-94
2021/12/08 02:54:15;;;;;;;11.15;6.32;;;3.60;99.90;;;;;;5037567;28;20141;-94
2021/12/08 02:56:41;;;;;;;14.88;7.00;;;3.70;99.90;;;;;;5020983;28;20544;-94
2021/12/08 02:59:08;;;;;;;12.07;6.88;;;3.70;99.90;;;;;;5021152;28;20053;-94
2021/12/08 03:01:35;;;;;;;16.63;7.38;;;3.70;99.90;;;;;;5037431;28;20037;-94
2021/12/08 03:04:03;;;;;;;21.92;8.75;;;3.80;99.90;;;;;;5037996;28;20387;-94
2021/12/08 03:06:29;;;;;;;16.63;7.65;;;3.80;99.90;;;;;;5037280;28;20471;-93
2021/12/08 03:08:54;;;;;;;14.23;7.80;;;3.80;99.90;;;;;;5037053;28;20095;-93
2021/12/08 03:11:20;;;;;;;15.50;8.15;;;3.80;99.90;;;;;;5020235;28;20044;-93
2021/12/08 03:14:18;;;;;;;17.90;8.63;;;3.80;99.90;;;;;;5036861;28;20052;-93
2021/12/08 03:16:49;;;;;;;18.38;9.10;;;3.90;99.90;;;;;;5036647;28;20458;-93
2021/12/08 03:19:17;;;;;;;15.13;8.27;;;3.90;99.90;;;;;;5037388;28;20437;-93
2021/12/08 03:21:43;;;;;;;16.25;10.18;;;3.90;99.90;;;;;;5020616;28;20049;-93
2021/12/08 03:24:33;;;;;;;22.23;10.65;;;3.90;99.90;;;;;;5019843;28;20156;-94
2021/12/08 03:29:36;;;;;;;15.15;10.60;;;4.00;99.90;;;;;;5037003;28;20053;-94
2021/12/08 03:32:08;;;;;;;16.80;10.07;;;4.00;99.90;;;;;;5037032;28;20084;-93
2021/12/08 03:34:38;;;;;;;16.08;10.20;;;4.00;99.90;;;;;;5036858;28;20411;-94
2021/12/08 03:37:08;;;;;;;23.42;11.32;;;4.00;99.90;;;;;;5036669;28;20045;-94
2021/12/08 03:39:35;;;;;;;22.00;10.63;;;4.10;99.90;;;;;;5037217;28;20053;-95
2021/12/08 03:42:02;;;;;;;17.08;9.35;;;4.10;99.90;;;;;;5037092;28;20135;-94
2021/12/08 03:44:28;;;;;;;15.45;10.35;;;4.10;99.90;;;;;;5036829;28;20045;-94
2021/12/08 03:47:00;;;;;;;18.75;10.60;;;4.10;99.90;;;;;;5036616;28;20084;-94
2021/12/08 03:49:27;;;;;;;19.27;10.85;;;4.60;99.90;;;;;;5036368;28;20037;-93
2021/12/08 03:51:55;;;;;;;14.60;7.95;;;4.30;99.90;;;;;;5036643;28;20041;-94
2021/12/08 03:54:21;;;;;;;15.52;9.48;;;4.30;99.90;;;;;;5020365;28;20112;-93
2021/12/08 03:56:47;;;;;;;19.52;9.65;;;4.40;99.90;;;;;;5036587;28;20049;-93
2021/12/08 03:59:12;;;;;;;20.33;10.10;;;4.10;99.90;;;;;;5020287;28;20056;-94
2021/12/08 04:01:38;;;;;;;17.55;9.80;;;4.50;99.90;;;;;;5020311;28;20136;-94
2021/12/08 04:04:07;;;;;;;18.30;10.13;;;4.10;99.90;;;;;;5036287;28;20045;-93
2021/12/08 04:06:44;;;;;;;18.42;9.77;;;4.10;99.90;;;;;;5036614;28;20048;-95
2021/12/08 04:09:18;;;;;;;21.90;10.07;;;4.30;99.90;;;;;;5036484;28;20037;-93
2021/12/08 04:11:45;;;;;;;21.08;10.30;;;4.20;99.90;;;;;;5036573;28;20048;-93
2021/12/08 04:14:15;;;;;;;22.63;11.05;;;4.20;99.90;;;;;;5036624;28;20122;-93
2021/12/08 04:16:47;;;;;;;19.25;9.60;;;4.40;99.90;;;;;;5036194;28;20045;-94
2021/12/08 04:19:13;;;;;;;21.08;10.27;;;4.20;99.90;;;;;;5036716;28;20049;-93
2021/12/08 04:21:40;;;;;;;17.75;10.43;;;4.60;99.90;;;;;;5052930;28;20479;-94
2021/12/08 04:24:07;;;;;;;19.00;10.85;;;4.50;99.90;;;;;;5039369;28;20045;-94
2021/12/08 04:26:38;;;;;;;19.70;10.10;;;4.30;99.90;;;;;;5040281;28;20052;-93
2021/12/08 04:29:07;;;;;;;23.33;10.57;;;4.40;99.90;;;;;;5040057;28;20045;-92
2021/12/08 04:31:35;;;;;;;23.02;11.02;;;4.70;99.90;;;;;;5039983;28;20056;-93
2021/12/08 04:34:06;;;;;;;18.50;10.43;;;4.50;99.90;;;;;;5040484;28;20049;-93
2021/12/08 04:36:39;;;;;;;;;;;4.50;99.90;;;;;;5056891;28;20057;-94
2021/12/08 04:39:11;;;;;;;15.25;9.38;;;4.50;99.90;;;;;;5039934;28;19920;-94
2021/12/08 04:41:42;;;;;;;24.73;10.60;;;4.50;99.90;;;;;;5023430;28;20049;-94
2021/12/08 04:52:07;;;;;;;16.67;9.75;;;4.80;99.90;;;;;;5056692;28;20049;-93
2021/12/08 05:03:38;;;;;;;17.23;8.85;;;4.60;99.90;;;;;;5039864;28;20048;-92
2021/12/08 05:06:20;;;;;;;15.63;9.10;;;4.70;99.90;;;;;;5023083;28;20049;-93
2021/12/08 05:08:49;;;;;;;15.65;8.68;;;4.70;99.90;;;;;;5022718;28;20045;-93
2021/12/08 05:11:21;;;;;;;41.70;10.95;;;4.60;99.90;;;;;;5022891;28;20056;-93
2021/12/08 05:13:51;;;;;;;18.42;9.48;;;4.60;99.90;;;;;;5039943;28;20048;-94
2021/12/08 05:16:18;;;;;;;18.13;9.60;;;4.60;99.90;;;;;;5055924;28;20053;-93
2021/12/08 05:18:48;;;;;;;17.15;8.75;;;4.50;99.90;;;;;;5039295;28;20049;-93
2021/12/08 05:21:25;;;;;;;21.23;8.70;;;4.50;99.90;;;;;;5022451;28;20091;-93
2021/12/08 05:24:02;;;;;;;35.80;9.00;;;4.50;99.90;;;;;;5022496;28;20048;-93
2021/12/08 05:26:37;;;;;;;18.30;8.57;;;4.50;99.90;;;;;;5039355;28;20053;-94
2021/12/08 05:29:12;;;;;;;17.83;8.25;;;4.40;99.90;;;;;;5038814;28;20045;-93
2021/12/08 05:31:38;;;;;;;22.60;8.50;;;4.70;99.90;;;;;;5022296;28;20406;-93
2021/12/08 05:34:04;;;;;;;19.83;8.82;;;4.50;99.90;;;;;;5038485;28;20045;-93
2021/12/08 05:36:31;;;;;;;19.02;8.27;;;4.50;99.90;;;;;;5035380;28;20052;-94
2021/12/08 05:38:58;;;;;;;13.85;8.23;;;4.60;99.90;;;;;;5035959;28;20053;-93
2021/12/08 05:41:28;;;;;;;13.40;7.47;;;4.40;99.90;;;;;;5035918;28;20081;-95
2021/12/08 05:43:54;;;;;;;23.60;8.67;;;4.70;99.90;;;;;;5018672;28;20045;-94
2021/12/08 05:46:22;;;;;;;15.00;8.10;;;4.50;99.90;;;;;;5035557;28;20296;-92
2021/12/08 05:48:50;;;;;;;18.83;7.68;;;4.30;99.90;;;;;;5035200;28;20041;-93
2021/12/08 05:51:23;;;;;;;17.67;7.80;;;4.30;99.90;;;;;;5018756;28;20104;-93
2021/12/08 05:53:51;;;;;;;11.15;6.60;;;4.30;99.90;;;;;;5035275;28;20196;-94
2021/12/08 05:56:17;;;;;;;16.33;7.65;;;4.20;99.90;;;;;;5018766;28;20091;-94
2021/12/08 05:58:45;;;;;;;13.70;7.75;;;4.20;99.90;;;;;;5051805;28;20042;-93
2021/12/08 06:01:19;;;;;;;16.77;7.95;;;4.20;99.90;;;;;;5018528;28;20119;-93
2021/12/08 06:03:49;;;;;;;14.35;6.85;;;4.30;99.90;;;;;;5035108;28;20511;-93
2021/12/08 06:06:16;;;;;;;12.38;6.85;;;4.30;99.90;;;;;;5013548;28;20058;-93
2021/12/08 06:08:42;;;;;;;17.92;6.35;;;4.30;99.90;;;;;;5017996;28;20495;-94
2021/12/08 06:11:10;;;;;;;17.80;6.60;;;4.20;99.90;;;;;;5001931;28;20053;-94
2021/12/08 06:13:38;;;;;;;18.35;6.93;;;4.20;99.90;;;;;;5019877;28;20123;-93
2021/12/08 06:16:05;;;;;;;20.20;6.80;;;4.20;99.90;;;;;;5018068;28;20061;-93
2021/12/08 06:18:38;;;;;;;14.88;6.93;;;4.20;99.90;;;;;;5018025;28;20392;-93
2021/12/08 06:21:07;;;;;;;17.27;6.43;;;4.20;99.90;;;;;;5034942;28;20104;-92
2021/12/08 06:23:34;;;;;;;19.33;7.03;;;4.10;99.90;;;;;;5034940;28;20104;-92
2021/12/08 06:26:00;;;;;;;16.77;6.97;;;4.40;99.90;;;;;;5018011;28;20112;-94
2021/12/08 06:28:26;;;;;;;15.10;6.30;;;4.10;99.90;;;;;;5035551;28;20038;-93
2021/12/08 06:30:52;;;;;;;18.23;6.13;;;4.00;99.90;;;;;;5001781;28;20053;-93
2021/12/08 06:33:20;;;;;;;17.33;6.68;;;4.10;99.90;;;;;;5034237;28;20046;-93
2021/12/08 06:35:56;;;;;;;13.30;6.07;;;4.10;99.90;;;;;;5033987;28;20423;-91
2021/12/08 06:38:24;;;;;;;17.90;5.60;;;4.30;99.90;;;;;;5034335;28;20060;-94
2021/12/08 06:41:06;;;;;;;20.33;6.13;;;4.10;99.90;;;;;;5018249;28;20045;-93
2021/12/08 06:43:38;;;;;;;14.75;5.70;;;4.00;99.90;;;;;;5018076;28;20049;-93
2021/12/08 06:46:05;;;;;;;10.07;5.50;;;4.00;99.90;;;;;;5000665;28;20053;-92
2021/12/08 06:48:39;;;;;;;11.55;6.07;;;4.00;99.90;;;;;;5001808;28;20510;-94
2021/12/08 06:51:19;;;;;;;12.50;5.72;;;4.30;99.90;;;;;;4997663;28;20045;-93
2021/12/08 06:53:51;;;;;;;11.57;4.63;;;4.00;99.90;;;;;;4997953;28;20504;-93
2021/12/08 06:56:33;;;;;;;15.15;4.93;;;4.00;99.90;;;;;;4997854;28;20058;-93
2021/12/08 06:59:05;;;;;;;14.05;5.45;;;4.00;99.90;;;;;;4998163;28;20093;-93
2021/12/08 07:02:03;;;;;;;16.48;5.40;;;4.10;99.90;;;;;;4997672;28;20192;-94
2021/12/08 07:04:51;;;;;;;16.73;5.55;;;4.10;99.90;;;;;;4997768;28;20061;-94
2021/12/08 07:07:18;;;;;;;16.77;5.50;;;4.00;99.90;;;;;;4981929;28;20482;-92
2021/12/08 07:09:43;;;;;;;12.82;4.50;;;4.00;99.90;;;;;;4997978;28;20124;-93
2021/12/08 07:12:17;;;;;;;15.52;4.82;;;3.90;99.90;;;;;;4982465;28;20196;-93
2021/12/08 07:14:48;;;;;;;15.48;4.53;;;3.90;99.90;;;;;;4997770;28;20053;-92
2021/12/08 07:17:20;;;;;;;12.55;4.47;;;3.90;99.90;;;;;;5013539;28;20045;-93
2021/12/08 07:19:52;;;;;;;13.02;4.68;;;3.80;99.90;;;;;;4997834;28;20423;-93
2021/12/08 07:22:28;;;;;;;16.15;5.15;;;3.90;99.90;;;;;;4997652;28;20537;-93
2021/12/08 07:24:56;;;;;;;12.75;4.95;;;4.20;99.90;;;;;;4997370;28;20395;-92
2021/12/08 07:27:27;;;;;;;13.43;4.50;;;4.10;99.90;;;;;;4997263;28;20065;-92
2021/12/08 07:29:55;;;;;;;16.13;4.57;;;4.00;99.90;;;;;;4996897;28;20046;-92
2021/12/08 07:32:30;;;;;;;12.65;4.60;;;4.50;99.90;;;;;;4997330;28;20487;-93
2021/12/08 07:34:59;;;;;;;14.48;4.38;;;4.40;99.90;;;;;;4996809;28;20448;-93
2021/12/08 07:37:30;;;;;;;13.05;4.10;;;3.70;99.90;;;;;;4979314;28;20073;-94
2021/12/08 07:40:01;;;;;;;9.60;3.50;;;4.20;99.90;;;;;;4977790;28;20129;-93
2021/12/08 07:42:32;;;;;;;14.90;4.13;;;3.90;99.90;;;;;;4977493;28;20046;-93
2021/12/08 07:45:01;;;;;;;13.40;4.05;;;4.30;99.90;;;;;;4977926;28;20085;-93
2021/12/08 07:47:28;;;;;;;13.25;3.78;;;4.00;99.90;;;;;;4993985;28;20050;-93
2021/12/08 07:50:02;;;;;;;13.77;3.13;;;4.20;99.90;;;;;;4978044;28;20047;-91
2021/12/08 07:52:35;;;;;;;12.65;3.40;;;3.90;99.90;;;;;;4977731;28;20082;-93
2021/12/08 07:55:06;;;;;;;8.98;2.90;;;4.40;99.90;;;;;;4977959;28;20058;-91
2021/12/08 07:57:34;;;;;;;10.82;2.80;;;4.00;99.90;;;;;;4977230;28;20137;-93
2021/12/08 08:00:07;;;;;;;8.68;2.97;;;3.90;99.90;;;;;;4961920;28;20122;-94
2021/12/08 08:02:33;;;;;;;12.55;3.05;;;4.00;99.90;;;;;;4977763;28;20062;-93
2021/12/08 08:05:05;;;;;;;11.88;3.10;;;4.10;99.90;;;;;;4977909;28;20054;-94
2021/12/08 08:07:32;;;;;;;10.20;3.08;;;4.50;99.90;;;;;;4961440;28;20046;-92
2021/12/08 08:10:02;;;;;;;9.25;2.90;;;4.00;99.90;;;;;;4977704;28;20054;-94
2021/12/08 08:12:33;;;;;;;14.80;3.08;;;4.10;99.90;;;;;;4978045;28;20129;-92
2021/12/08 08:15:04;;;;;;;12.38;3.00;;;4.10;99.90;;;;;;4977728;28;20057;-92
2021/12/08 08:17:37;;;;;;;9.65;3.10;;;4.70;99.90;;;;;;4977748;28;20497;-93
2021/12/08 08:20:13;;;;;;;11.75;3.13;;;4.10;99.90;;;;;;4977206;28;20086;-92
2021/12/08 08:22:40;;;;;;;9.40;2.40;;;4.10;99.90;;;;;;4977479;28;20050;-93
2021/12/08 08:25:08;;;;;;;11.73;2.55;;;4.40;99.90;;;;;;4961771;28;20054;-93
2021/12/08 08:27:34;;;;;;;13.00;3.13;;;4.10;99.90;;;;;;4976935;28;20182;-93
2021/12/08 08:30:02;;;;;;;9.55;2.35;;;4.10;99.90;;;;;;4977323;28;20039;-93
2021/12/08 08:32:33;;;;;;;9.50;2.20;;;4.10;99.90;;;;;;4977595;28;20054;-93
2021/12/08 08:35:05;;;;;;;8.80;2.80;;;4.10;99.90;;;;;;4977539;28;20053;-92
2021/12/08 08:37:32;;;;;;;15.48;2.70;;;4.60;99.90;;;;;;4995391;28;20137;-92
2021/12/08 08:40:03;;;;;;;13.73;2.65;;;4.30;99.90;;;;;;4997112;28;20038;-93
2021/12/08 08:42:33;;;;;;;13.80;2.38;;;4.40;99.90;;;;;;4996652;28;20053;-92
2021/12/08 08:45:12;;;;;;;10.85;2.20;;;4.50;99.90;;;;;;4996784;28;20042;-94
2021/12/08 08:47:49;;;;;;;7.00;1.75;;;4.30;99.90;;;;;;4980282;28;20053;-93
2021/12/08 08:50:27;;;;;;;10.82;2.17;;;4.50;99.90;;;;;;4996799;28;20106;-92
2021/12/08 08:52:56;;;;;;;10.00;2.15;;;4.60;99.90;;;;;;4996624;28;20133;-93
2021/12/08 08:55:28;;;;;;;12.77;2.20;;;4.70;99.90;;;;;;4996378;28;20046;-93
2021/12/08 08:57:54;;;;;;;12.23;2.22;;;4.70;99.90;;;;;;4996507;28;20136;-93
2021/12/08 09:00:31;;;;;;;13.57;2.45;;;4.60;99.90;;;;;;4996082;28;20049;-93
2021/12/08 09:03:01;;;;;;;17.08;2.58;;;4.70;99.90;;;;;;4996665;28;20052;-92
2021/12/08 09:05:39;;;;;;;16.45;2.75;;;4.70;99.90;;;;;;4996762;28;20132;-91
2021/12/08 09:08:06;;;;;;;12.25;2.05;;;5.00;99.90;;;;;;4996868;28;20038;-93
2021/12/08 09:10:41;;;;;;;14.40;2.13;;;4.70;99.90;;;;;;4998828;28;20054;-93
2021/12/08 09:13:25;;;;;;;9.57;2.40;;;4.70;99.90;;;;;;4984153;28;20052;-94
2021/12/08 09:15:56;;;;;;;17.02;2.22;;;4.70;99.90;;;;;;5000196;28;20042;-93
2021/12/08 09:18:30;;;;;;;9.88;2.25;;;4.70;99.90;;;;;;5000347;28;20056;-94
2021/12/08 09:21:16;;;;;;;9.85;2.10;;;5.20;99.90;;;;;;5017054;28;20050;-94
2021/12/08 09:23:56;;;;;;;17.58;2.40;;;4.70;99.90;;;;;;4983715;28;20049;-92
2021/12/08 09:26:22;;;;;;;15.18;2.20;;;4.80;99.90;;;;;;4999444;28;20511;-92
2021/12/08 09:28:58;;;;;;;14.75;2.88;;;4.80;99.90;;;;;;4999624;28;20548;-91
2021/12/08 09:31:31;;;;;;;12.88;1.80;;;4.80;99.90;;;;;;4999453;28;20037;-93
2021/12/08 09:34:07;;;;;;;12.75;2.20;;;4.70;99.90;;;;;;4999493;28;20412;-93
2021/12/08 09:36:39;;;;;;;15.95;2.42;;;5.20;99.90;;;;;;5016822;28;20064;-93
2021/12/08 09:39:30;;;;;;;10.65;2.58;;;4.80;99.90;;;;;;4999701;28;20113;-92
2021/12/08 09:42:12;;;;;;;15.82;2.63;;;4.90;99.90;;;;;;4999036;28;20100;-92
2021/12/08 09:44:42;;;;;;;13.73;2.30;;;5.00;99.90;;;;;;4999384;28;20113;-92
2021/12/08 09:47:08;;;;;;;14.13;2.72;;;5.10;99.90;;;;;;4999163;28;20492;-92
2021/12/08 09:49:35;;;;;;;11.23;2.72;;;5.20;99.90;;;;;;4999285;28;20038;-92
2021/12/08 09:52:05;;;;;;;11.82;2.40;;;5.30;99.90;;;;;;4998984;28;20546;-92
2021/12/08 09:54:31;;;;;;;9.73;1.92;;;5.80;99.90;;;;;;4998824;28;20065;-92
2021/12/08 09:56:59;;;;;;;10.27;2.00;;;6.40;99.90;;;;;;4998741;28;20037;-92
2021/12/08 09:59:25;;;;;;;16.77;2.17;;;6.60;99.90;;;;;;4999039;28;20049;-91
2021/12/08 10:01:52;;;;;;;12.63;2.40;;;6.50;99.90;;;;;;4999042;28;20045;-92
2021/12/08 10:04:19;;;;;;;8.50;1.88;;;6.40;99.90;;;;;;4998850;28;20053;-92
2021/12/08 10:06:49;;;;;;;15.13;2.50;;;6.70;99.90;;;;;;4982057;28;20076;-91
2021/12/08 10:09:20;;;;;;;6.65;1.80;;;6.00;99.90;;;;;;4998448;28;20518;-92
2021/12/08 10:11:46;;;;;;;10.52;2.25;;;5.90;99.90;;;;;;4998717;28;20068;-93
2021/12/08 10:14:13;;;;;;;6.85;2.10;;;5.80;99.90;;;;;;4998894;28;20448;-92
2021/12/08 10:16:39;;;;;;;11.02;2.22;;;5.70;99.90;;;;;;4999118;28;20077;-93
2021/12/08 10:19:05;;;;;;;13.27;2.53;;;5.80;99.90;;;;;;4998343;28;20152;-92
2021/12/08 10:21:40;;;;;;;11.73;2.42;;;6.70;99.90;;;;;;4998472;28;20135;-93
2021/12/08 10:24:14;;;;;;;10.10;2.20;;;7.20;99.90;;;;;;4998760;28;20058;-92
2021/12/08 10:26:39;;;;;;;10.63;2.10;;;7.80;99.90;;;;;;4998982;28;20072;-93
2021/12/08 10:29:06;;;;;;;11.40;2.30;;;8.10;99.90;;;;;;4998775;28;20038;-91
2021/12/08 10:31:39;;;;;;;12.40;2.53;;;8.50;99.90;;;;;;4998508;28;20046;-92
2021/12/08 10:36:54;;;;;;;9.02;2.15;;;8.90;99.90;;;;;;4998197;28;20062;-94
2021/12/08 10:39:22;;;;;;;11.70;1.70;;;9.00;99.90;;;;;;4998302;28;20132;-92
2021/12/08 10:42:03;;;;;;;7.90;1.95;;;9.20;99.90;;;;;;4982928;28;20045;-92
2021/12/08 10:44:47;;;;;;;10.00;1.95;;;9.40;99.90;;;;;;4981701;28;20136;-91
2021/12/08 10:47:22;;;;;;;7.15;1.88;;;9.50;99.90;;;;;;4982113;28;20052;-93
2021/12/08 10:55:02;;;;;;;8.85;2.20;;;9.80;99.90;;;;;;4998308;28;20159;-92
2021/12/08 10:57:31;;;;;;;9.77;2.28;;;10.00;99.90;;;;;;4998157;28;20400;-93
2021/12/08 11:00:00;;;;;;;10.65;2.83;;;10.60;99.90;;;;;;4997832;28;20050;-93
2021/12/08 11:02:46;;;;;;;4.78;1.75;;;10.30;99.90;;;;;;4998130;28;20550;-93
2021/12/08 11:05:24;;;;;;;6.53;1.73;;;10.50;99.90;;;;;;4982003;28;20048;-94
2021/12/08 11:08:13;;;;;;;6.85;1.80;;;10.40;99.90;;;;;;4997722;28;20392;-92
2021/12/08 11:10:39;;;;;;;13.40;2.30;;;9.90;99.90;;;;;;4997725;28;20356;-93
2021/12/08 11:13:05;;;;;;;9.65;2.30;;;9.20;99.90;;;;;;4981700;28;20050;-93
2021/12/08 11:15:32;;;;;;;10.73;2.90;;;8.80;99.90;;;;;;4997674;28;20136;-93
2021/12/08 11:18:20;;;;;;;9.70;2.22;;;8.10;99.90;;;;;;4981299;28;20192;-92
2021/12/08 11:20:59;;;;;;;10.15;2.72;;;7.80;99.90;;;;;;4997542;28;20057;-91
2021/12/08 11:23:39;;;;;;;10.95;2.58;;;7.50;99.90;;;;;;4997523;28;20050;-93
2021/12/08 11:26:14;;;;;;;7.78;2.13;;;7.20;99.90;;;;;;4997322;28;20093;-93
2021/12/08 11:28:40;;;;;;;11.80;2.53;;;7.00;99.90;;;;;;4980638;28;20053;-93
2021/12/08 11:31:15;;;;;;;14.13;2.63;;;6.90;99.90;;;;;;4997396;28;20046;-91
2021/12/08 11:33:48;;;;;;;12.35;2.53;;;6.80;99.90;;;;;;4996841;28;20108;-93
2021/12/08 11:36:21;;;;;;;9.00;2.28;;;6.70;99.90;;;;;;4997109;28;20062;-93
2021/12/08 11:38:49;;;;;;;8.40;2.13;;;6.50;99.90;;;;;;5013885;28;20100;-94
2021/12/08 11:41:36;;;;;;;7.25;2.30;;;6.50;99.90;;;;;;4997630;28;20053;-92
2021/12/08 11:44:10;;;;;;;12.65;2.70;;;6.40;99.90;;;;;;4996921;28;20133;-92
2021/12/08 11:47:07;;;;;;;10.23;2.80;;;6.30;99.90;;;;;;4997576;28;20053;-93
2021/12/08 11:49:34;;;;;;;11.20;3.30;;;6.30;99.90;;;;;;4996638;28;20057;-91
2021/12/08 11:52:15;;;;;;;11.43;2.50;;;6.20;99.90;;;;;;4997540;28;20045;-93
2021/12/08 11:54:52;;;;;;;8.63;2.60;;;6.10;99.90;;;;;;4997370;28;20096;-92
2021/12/08 11:57:25;;;;;;;7.55;2.28;;;6.10;99.90;;;;;;4981133;28;20136;-93
2021/12/08 11:59:56;;;;;;;12.55;2.72;;;6.00;99.90;;;;;;4997090;28;20140;-92
2021/12/08 12:02:35;;;;;;;8.35;2.47;;;6.00;99.90;;;;;;4997192;28;20046;-93
2021/12/08 12:05:05;;;;;;;9.90;2.70;;;6.10;99.90;;;;;;4981269;28;20120;-92
2021/12/08 12:07:30;;;;;;;10.55;3.08;;;6.00;99.90;;;;;;4997961;28;20060;-93
2021/12/08 12:09:56;;;;;;;6.90;2.65;;;6.00;99.90;;;;;;4981004;28;20065;-93
2021/12/08 12:12:22;;;;;;;9.40;2.40;;;6.00;99.90;;;;;;4997447;28;20042;-93
2021/12/08 12:14:48;;;;;;;13.15;2.80;;;6.00;99.90;;;;;;4997113;28;20104;-93
2021/12/08 12:17:15;;;;;;;13.50;2.30;;;6.50;99.90;;;;;;4997329;28;20041;-94
2021/12/08 12:20:05;;;;;;;10.30;2.60;;;6.10;99.90;;;;;;4997261;28;20140;-93
2021/12/08 12:22:40;;;;;;;9.83;2.40;;;6.20;99.90;;;;;;4997148;28;20116;-92
2021/12/08 12:25:28;;;;;;;10.48;2.22;;;6.20;99.90;;;;;;4981123;28;20437;-94
2021/12/08 12:28:00;;;;;;;9.32;2.10;;;6.20;99.90;;;;;;4996793;28;20053;-94
2021/12/08 12:30:48;;;;;;;7.90;2.10;;;6.10;99.90;;;;;;4997113;28;20484;-93
2021/12/08 12:33:18;;;;;;;8.10;2.20;;;6.10;99.90;;;;;;4997067;28;20136;-94
2021/12/08 12:35:53;;;;;;;6.90;2.58;;;6.10;99.90;;;;;;4980704;28;20066;-93
2021/12/08 12:38:35;;;;;;;12.40;2.38;;;6.00;99.90;;;;;;4996848;28;20053;-93
2021/12/08 12:41:01;;;;;;;7.88;2.53;;;6.40;99.90;;;;;;4997028;28;20053;-93
2021/12/08 12:43:33;;;;;;;10.63;2.20;;;6.00;99.90;;;;;;4997823;28;20034;-93
2021/12/08 12:46:14;;;;;;;8.30;2.42;;;6.00;99.90;;;;;;5000352;28;20057;-93
2021/12/08 12:48:40;;;;;;;5.70;2.17;;;6.10;99.90;;;;;;5000405;28;20093;-94
2021/12/08 12:51:10;;;;;;;7.40;1.83;;;6.20;99.90;;;;;;5000233;28;20081;-93
2021/12/08 12:53:53;;;;;;;7.95;1.88;;;6.40;99.90;;;;;;5001062;28;20050;-93
2021/12/08 12:56:27;;;;;;;10.60;2.00;;;6.40;99.90;;;;;;5000703;28;20056;-93
2021/12/08 12:58:55;;;;;;;8.02;2.10;;;6.50;99.90;;;;;;4984602;28;20100;-93
2021/12/08 13:01:30;;;;;;;10.48;1.85;;;6.50;99.90;;;;;;4984604;28;20463;-95
2021/12/08 13:04:03;;;;;;;9.60;2.20;;;6.50;99.90;;;;;;5000149;28;20046;-93
2021/12/08 13:06:38;;;;;;;9.45;1.85;;;6.40;99.90;;;;;;4984213;28;20057;-93
2021/12/08 13:09:05;;;;;;;9.93;2.15;;;6.40;99.90;;;;;;4983352;28;20145;-94
2021/12/08 13:11:47;;;;;;;6.70;2.20;;;6.40;99.90;;;;;;5000615;28;20104;-94
2021/12/08 13:14:28;;;;;;;12.23;3.30;;;6.30;99.90;;;;;;4983383;28;20403;-94
2021/12/08 13:17:11;;;;;;;9.70;2.30;;;6.30;99.90;;;;;;5000560;28;20056;-94
2021/12/08 13:19:49;;;;;;;12.75;2.20;;;6.80;99.90;;;;;;5000516;28;20077;-93
2021/12/08 13:22:42;;;;;;;7.80;2.70;;;6.50;99.90;;;;;;4999783;28;20045;-93
2021/12/08 13:25:27;;;;;;;11.90;4.47;;;6.30;99.90;;;;;;5000095;28;20038;-95
2021/12/08 13:28:15;;;;;;;10.05;2.50;;;6.30;99.90;;;;;;4999709;28;20057;-94
2021/12/08 13:30:51;;;;;;;9.18;2.28;;;6.30;99.90;;;;;;4983799;28;20065;-93
2021/12/08 13:33:34;;;;;;;10.75;1.90;;;6.20;99.90;;;;;;4999606;28;20046;-95
2021/12/08 13:36:31;;;;;;;8.57;1.95;;;6.20;99.90;;;;;;4999654;28;20081;-94
2021/12/08 13:38:56;;;;;;;8.02;2.00;;;6.30;99.90;;;;;;4999915;28;20058;-93
2021/12/08 13:41:29;;;;;;;7.53;2.40;;;6.20;99.90;;;;;;4999650;28;20053;-95
2021/12/08 13:43:55;;;;;;;7.28;2.00;;;6.40;99.90;;;;;;5009108;28;20511;-94
2021/12/08 13:46:36;;;;;;;7.90;1.90;;;6.40;99.90;;;;;;5019111;28;20045;-94
2021/12/08 13:49:28;;;;;;;13.25;2.40;;;6.20;99.90;;;;;;5035502;28;20368;-95
2021/12/08 13:52:17;;;;;;;9.43;2.63;;;6.10;99.90;;;;;;5019725;28;20107;-94
2021/12/08 13:54:50;;;;;;;5.93;1.73;;;6.20;99.90;;;;;;5003091;28;20419;-94